createdAt,value
2019-01-15T00:02:02.990Z,36.74
2019-01-15T00:04:28.862Z,36.35
2019-01-15T00:06:54.775Z,36.13
2019-01-15T00:09:20.648Z,36.40
2019-01-15T00:11:46.528Z,35.55
2019-01-15T00:14:12.391Z,36.50
2019-01-15T00:16:38.375Z,37.65
2019-01-15T00:19:04.222Z,38.02
2019-01-15T00:21:30.100Z,37.52
2019-01-15T00:23:55.989Z,38.20
2019-01-15T00:26:21.988Z,38.80
2019-01-15T00:28:47.833Z,38.48
2019-01-15T00:31:13.748Z,39.27
2019-01-15T00:33:39.612Z,39.67
2019-01-15T00:36:05.533Z,39.47
2019-01-15T00:38:31.498Z,39.73
2019-01-15T00:40:57.794Z,40.01
2019-01-15T00:43:23.682Z,39.57
2019-01-15T00:45:49.660Z,39.75
2019-01-15T00:48:15.509Z,39.34
2019-01-15T00:50:41.391Z,39.06
2019-01-15T00:53:07.287Z,39.89
2019-01-15T00:55:33.145Z,40.24
2019-01-15T00:57:59.016Z,40.61
2019-01-15T01:00:24.912Z,40.95
2019-01-15T01:02:50.800Z,40.62
2019-01-15T01:05:16.800Z,39.00
2019-01-15T01:07:42.675Z,37.46
2019-01-15T01:10:09.751Z,37.88
2019-01-15T01:12:35.647Z,39.26
2019-01-15T01:15:02.455Z,40.06
2019-01-15T01:17:28.324Z,40.34
2019-01-15T01:19:54.188Z,40.34
2019-01-15T01:22:20.073Z,39.96
2019-01-15T01:24:45.952Z,39.70
2019-01-15T01:27:11.941Z,39.18
2019-01-15T01:29:37.947Z,39.46
2019-01-15T01:32:03.770Z,37.90
2019-01-15T01:34:29.634Z,37.11
2019-01-15T01:36:55.537Z,37.52
2019-01-15T01:39:21.534Z,37.36
2019-01-15T01:41:47.769Z,36.04
2019-01-15T01:44:13.660Z,36.07
2019-01-15T01:46:39.687Z,35.54
2019-01-15T01:49:05.583Z,36.14
2019-01-15T01:51:31.431Z,36.84
2019-01-15T01:53:57.308Z,36.46
2019-01-15T01:56:23.247Z,36.27
2019-01-15T01:58:49.114Z,36.36
2019-01-15T02:01:14.972Z,37.08
2019-01-15T02:03:40.849Z,38.06
2019-01-15T02:06:06.712Z,39.21
2019-01-15T02:08:32.795Z,39.67
2019-01-15T02:10:58.697Z,40.46
2019-01-15T02:13:24.552Z,39.95
2019-01-15T02:15:50.433Z,40.71
2019-01-15T02:18:16.293Z,40.52
2019-01-15T02:20:42.182Z,41.34
2019-01-15T02:23:08.061Z,41.62
2019-01-15T02:25:34.327Z,42.02
2019-01-15T02:28:00.258Z,41.87
2019-01-15T02:30:26.214Z,42.03
2019-01-15T02:32:52.077Z,41.69
2019-01-15T02:35:17.917Z,41.28
2019-01-15T02:37:43.794Z,39.62
2019-01-15T02:40:12.114Z,39.69
2019-01-15T02:42:46.383Z,38.49
2019-01-15T02:45:09.350Z,38.61
2019-01-15T02:47:35.319Z,39.17
2019-01-15T02:50:01.224Z,39.74
2019-01-15T02:52:27.072Z,40.35
2019-01-15T02:54:52.950Z,40.40
2019-01-15T02:57:18.808Z,40.05
2019-01-15T02:59:44.779Z,41.00
2019-01-15T03:02:10.665Z,41.18
2019-01-15T03:04:36.629Z,41.28
2019-01-15T03:07:02.585Z,41.00
2019-01-15T03:09:28.465Z,40.39
2019-01-15T03:11:54.338Z,40.87
2019-01-15T03:14:20.202Z,40.96
2019-01-15T03:16:46.061Z,40.33
2019-01-15T03:19:11.952Z,40.74
2019-01-15T03:21:37.844Z,41.20
2019-01-15T03:24:03.745Z,40.73
2019-01-15T03:26:29.607Z,40.73
2019-01-15T03:28:55.468Z,39.55
2019-01-15T03:31:21.346Z,39.98
2019-01-15T03:33:47.212Z,40.27
2019-01-15T03:36:13.199Z,41.67
2019-01-15T03:38:39.058Z,41.94
2019-01-15T03:41:05.011Z,42.07
2019-01-15T03:43:31.523Z,42.16
2019-01-15T03:46:04.196Z,41.69
2019-01-15T03:48:25.223Z,41.54
2019-01-15T03:50:51.205Z,41.54
2019-01-15T03:53:17.053Z,42.14
2019-01-15T03:55:42.972Z,42.04
2019-01-15T03:58:08.840Z,42.15
2019-01-15T04:00:34.700Z,42.03
2019-01-15T04:03:00.849Z,42.54
2019-01-15T04:05:26.872Z,43.10
2019-01-15T04:07:54.644Z,43.10
2019-01-15T04:10:20.529Z,43.53
2019-01-15T04:12:46.443Z,42.88
2019-01-15T04:15:12.434Z,42.91
2019-01-15T04:17:38.344Z,43.45
2019-01-15T04:20:10.152Z,44.04
2019-01-15T04:22:36.019Z,44.13
2019-01-15T04:25:01.975Z,43.67
2019-01-15T04:27:27.850Z,43.24
2019-01-15T04:29:53.722Z,44.08
2019-01-15T04:32:19.579Z,43.13
2019-01-15T04:34:45.474Z,43.08
2019-01-15T04:37:11.359Z,42.58
2019-01-15T04:39:37.210Z,41.84
2019-01-15T04:42:03.225Z,41.67
2019-01-15T04:44:29.423Z,41.52
2019-01-15T04:46:55.320Z,41.68
2019-01-15T04:49:21.206Z,41.52
2019-01-15T04:51:47.086Z,41.93
2019-01-15T04:54:12.969Z,42.41
2019-01-15T04:56:39.271Z,42.35
2019-01-15T04:59:05.145Z,42.14
2019-01-15T05:01:30.998Z,42.21
2019-01-15T05:03:56.883Z,42.14
2019-01-15T05:06:22.765Z,43.00
2019-01-15T05:08:48.654Z,42.38
2019-01-15T05:11:14.624Z,42.51
2019-01-15T05:13:40.493Z,43.02
2019-01-15T05:16:06.353Z,43.32
2019-01-15T05:18:32.272Z,43.25
2019-01-15T05:20:58.256Z,43.06
2019-01-15T05:23:24.125Z,43.09
2019-01-15T05:25:50.011Z,43.67
2019-01-15T05:28:15.911Z,43.31
2019-01-15T05:30:41.763Z,43.75
2019-01-15T05:33:07.643Z,43.53
2019-01-15T05:35:33.517Z,42.95
2019-01-15T05:37:59.382Z,43.49
2019-01-15T05:40:25.254Z,43.99
2019-01-15T05:42:51.240Z,44.27
2019-01-15T05:45:22.560Z,44.62
2019-01-15T05:47:49.848Z,44.98
2019-01-15T05:50:17.642Z,44.85
2019-01-15T05:52:43.518Z,45.53
2019-01-15T05:55:09.407Z,44.64
2019-01-15T05:57:35.287Z,44.69
2019-01-15T06:00:02.022Z,44.27
2019-01-15T06:02:27.906Z,44.46
2019-01-15T06:04:53.783Z,44.60
2019-01-15T06:07:19.680Z,43.61
2019-01-15T06:09:45.569Z,43.05
2019-01-15T06:12:11.526Z,43.29
2019-01-15T06:14:37.390Z,43.13
2019-01-15T06:17:03.261Z,42.73
2019-01-15T06:19:29.165Z,42.57
2019-01-15T06:21:55.148Z,42.78
2019-01-15T06:24:21.020Z,43.63
2019-01-15T06:26:46.912Z,43.63
2019-01-15T06:29:13.102Z,43.27
2019-01-15T06:31:38.973Z,43.39
2019-01-15T06:34:04.834Z,43.61
2019-01-15T06:36:30.698Z,43.81
2019-01-15T06:38:56.552Z,43.46
2019-01-15T06:41:22.414Z,43.73
2019-01-15T06:43:50.128Z,43.94
2019-01-15T06:46:16.773Z,44.23
2019-01-15T06:48:42.647Z,44.26
2019-01-15T06:51:08.609Z,44.54
2019-01-15T06:53:34.516Z,44.47
2019-01-15T06:56:00.366Z,44.42
2019-01-15T06:58:26.311Z,44.32
2019-01-15T07:00:52.169Z,45.37
2019-01-15T07:03:18.037Z,44.25
2019-01-15T07:05:43.915Z,43.88
2019-01-15T07:08:09.822Z,43.22
2019-01-15T07:10:37.102Z,43.05
2019-01-15T07:13:03.142Z,42.77
2019-01-15T07:15:29.109Z,42.71
2019-01-15T07:17:55.006Z,42.00
2019-01-15T07:20:20.885Z,42.43
2019-01-15T07:22:46.755Z,42.59
2019-01-15T07:25:15.126Z,42.84
2019-01-15T07:27:41.133Z,42.48
2019-01-15T07:30:18.726Z,42.12
2019-01-15T07:32:44.580Z,41.83
2019-01-15T07:35:10.419Z,41.32
2019-01-15T07:37:36.325Z,41.03
2019-01-15T07:40:05.038Z,41.54
2019-01-15T07:42:30.894Z,42.03
2019-01-15T07:44:56.894Z,42.13
2019-01-15T07:47:23.498Z,42.01
2019-01-15T07:49:49.580Z,41.96
2019-01-15T07:52:15.451Z,42.08
2019-01-15T07:54:41.334Z,42.40
2019-01-15T07:57:07.229Z,41.61
2019-01-15T07:59:33.188Z,40.86
2019-01-15T08:01:59.180Z,40.68
2019-01-15T08:04:25.086Z,40.12
2019-01-15T08:06:51.069Z,40.04
2019-01-15T08:09:16.966Z,39.83
2019-01-15T08:11:42.843Z,39.94
2019-01-15T08:14:12.202Z,40.08
2019-01-15T08:16:36.638Z,40.39
2019-01-15T08:19:02.522Z,40.74
2019-01-15T08:21:28.440Z,41.18
2019-01-15T08:23:54.288Z,41.34
2019-01-15T08:26:20.167Z,41.20
2019-01-15T08:28:46.014Z,41.34
2019-01-15T08:31:11.880Z,40.71
2019-01-15T08:33:37.744Z,40.63
2019-01-15T08:36:03.595Z,40.06
2019-01-15T08:38:29.496Z,39.15
2019-01-15T08:40:55.511Z,38.46
2019-01-15T08:43:21.564Z,37.81
2019-01-15T08:45:47.579Z,38.00
2019-01-15T08:48:15.961Z,38.00
2019-01-15T08:50:41.935Z,37.79
2019-01-15T08:53:07.806Z,37.03
2019-01-15T08:55:33.678Z,37.76
2019-01-15T08:57:59.530Z,37.43
2019-01-15T09:00:25.446Z,37.72
2019-01-15T09:02:51.295Z,37.83
2019-01-15T09:05:17.189Z,38.34
2019-01-15T09:07:43.075Z,38.51
2019-01-15T09:10:16.259Z,38.19
2019-01-15T09:12:42.323Z,38.56
2019-01-15T09:15:11.227Z,38.54
2019-01-15T09:17:37.218Z,38.44
2019-01-15T09:20:09.869Z,38.40
2019-01-15T09:22:35.734Z,38.15
2019-01-15T09:25:01.786Z,37.81
2019-01-15T09:27:27.709Z,37.56
2019-01-15T09:29:53.577Z,37.81
2019-01-15T09:32:19.460Z,37.95
2019-01-15T09:34:45.348Z,38.17
2019-01-15T09:37:12.121Z,38.48
2019-01-15T09:39:38.020Z,38.70
2019-01-15T09:42:03.989Z,38.63
2019-01-15T09:44:34.058Z,39.10
2019-01-15T09:46:58.068Z,40.53
2019-01-15T09:49:24.617Z,40.74
2019-01-15T09:51:50.491Z,41.01
2019-01-15T09:54:16.381Z,40.50
2019-01-15T09:56:42.227Z,40.60
2019-01-15T09:59:08.088Z,40.55
2019-01-15T10:01:33.986Z,40.53
2019-01-15T10:03:59.860Z,40.40
2019-01-15T10:06:25.726Z,40.65
2019-01-15T10:08:51.631Z,40.34
2019-01-15T10:11:17.531Z,40.21
2019-01-15T10:13:43.401Z,40.15
2019-01-15T10:16:09.377Z,40.18
2019-01-15T10:18:35.275Z,40.05
2019-01-15T10:21:01.151Z,40.14
2019-01-15T10:23:27.018Z,40.04
2019-01-15T10:25:52.894Z,39.94
2019-01-15T10:28:18.752Z,39.79
2019-01-15T10:30:51.525Z,39.65
2019-01-15T10:33:26.875Z,39.63
2019-01-15T10:35:57.002Z,38.98
2019-01-15T10:38:27.157Z,39.11
2019-01-15T10:40:54.948Z,38.96
2019-01-15T10:43:20.796Z,39.05
2019-01-15T10:45:46.718Z,39.47
2019-01-15T10:48:13.359Z,39.37
2019-01-15T10:50:40.000Z,39.16
2019-01-15T10:53:06.778Z,38.99
2019-01-15T10:55:32.648Z,38.99
2019-01-15T10:57:58.581Z,38.81
2019-01-15T11:00:24.419Z,38.53
2019-01-15T11:02:50.385Z,38.50
2019-01-15T11:05:16.304Z,38.29
2019-01-15T11:07:42.174Z,38.06
2019-01-15T11:10:11.906Z,38.32
2019-01-15T11:12:37.795Z,38.11
2019-01-15T11:15:06.576Z,37.69
2019-01-15T11:17:32.445Z,37.20
2019-01-15T11:19:58.372Z,37.37
2019-01-15T11:22:24.264Z,37.39
2019-01-15T11:24:50.146Z,37.25
2019-01-15T11:27:16.030Z,36.92
2019-01-15T11:29:41.887Z,36.18
2019-01-15T11:32:07.754Z,36.40
2019-01-15T11:34:33.643Z,35.67
2019-01-15T11:36:59.625Z,35.59
2019-01-15T11:39:25.510Z,35.09
2019-01-15T11:41:51.386Z,34.86
2019-01-15T11:44:17.347Z,34.21
2019-01-15T11:46:43.261Z,33.81
2019-01-15T11:49:09.228Z,34.12
2019-01-15T11:51:35.318Z,32.36
2019-01-15T11:54:01.170Z,32.47
2019-01-15T11:56:27.032Z,32.16
2019-01-15T11:58:53.497Z,31.40
2019-01-15T12:01:21.298Z,30.71
2019-01-15T12:03:52.093Z,30.64
2019-01-15T12:06:34.815Z,29.92
2019-01-15T12:09:02.586Z,29.96
2019-01-15T12:11:36.636Z,28.93
2019-01-15T12:14:06.915Z,29.19
2019-01-15T12:16:51.292Z,29.40
2019-01-15T12:19:19.126Z,29.00
2019-01-15T12:22:03.698Z,28.37
2019-01-15T12:24:37.802Z,27.83
2019-01-15T12:27:08.348Z,27.73
2019-01-15T12:29:38.903Z,27.47
2019-01-15T12:32:06.690Z,27.59
2019-01-15T12:34:37.192Z,28.19
2019-01-15T12:37:10.744Z,28.43
2019-01-15T12:39:53.614Z,28.52
2019-01-15T12:42:21.381Z,28.82
2019-01-15T12:45:06.305Z,28.34
2019-01-15T12:47:49.359Z,27.69
2019-01-15T12:50:17.245Z,27.16
2019-01-15T12:52:48.280Z,27.09
2019-01-15T12:55:22.012Z,25.51
2019-01-15T12:57:52.672Z,24.82
2019-01-15T13:00:23.181Z,21.69
2019-01-15T13:02:59.807Z,18.48
2019-01-15T13:05:44.468Z,17.99
2019-01-15T13:08:24.192Z,18.37
2019-01-15T13:10:51.959Z,15.89
2019-01-15T13:13:22.455Z,16.73
2019-01-15T13:15:51.614Z,16.96
2019-01-15T13:18:34.543Z,16.03
2019-01-15T13:21:14.638Z,19.02
2019-01-15T13:23:51.474Z,19.60
2019-01-15T13:26:28.066Z,19.34
2019-01-15T13:28:58.353Z,19.09
2019-01-15T13:31:26.137Z,21.76
2019-01-15T13:34:10.700Z,23.36
2019-01-15T13:36:41.682Z,25.08
2019-01-15T13:39:21.448Z,25.38
2019-01-15T13:41:52.016Z,26.00
2019-01-15T13:44:28.590Z,26.39
2019-01-15T13:46:59.321Z,26.88
2019-01-15T13:49:27.091Z,26.86
2019-01-15T13:52:01.539Z,27.19
2019-01-15T13:54:35.757Z,27.12
2019-01-15T13:57:15.853Z,27.23
2019-01-15T13:59:49.442Z,27.63
2019-01-15T14:02:19.915Z,27.66
2019-01-15T14:04:59.668Z,27.75
2019-01-15T14:07:27.571Z,28.58
2019-01-15T14:09:58.358Z,28.89
2019-01-15T14:12:29.126Z,29.37
2019-01-15T14:14:59.832Z,29.95
2019-01-15T14:17:36.806Z,29.75
2019-01-15T14:20:20.168Z,29.73
2019-01-15T14:22:56.873Z,29.63
2019-01-15T14:25:30.436Z,29.90
2019-01-15T14:28:13.257Z,29.97
2019-01-15T14:30:53.139Z,30.03
2019-01-15T14:33:27.152Z,30.21
2019-01-15T14:36:13.046Z,30.33
2019-01-15T14:38:46.929Z,30.53
2019-01-15T14:41:14.699Z,30.97
2019-01-15T14:43:42.776Z,31.59
2019-01-15T14:46:27.220Z,32.19
2019-01-15T14:48:57.726Z,32.78
2019-01-15T14:51:28.600Z,32.83
2019-01-15T14:54:03.202Z,32.95
2019-01-15T14:56:48.417Z,33.02
2019-01-15T14:59:21.943Z,33.13
2019-01-15T15:01:52.603Z,33.32
2019-01-15T15:04:20.366Z,33.70
2019-01-15T15:06:48.246Z,33.89
2019-01-15T15:09:16.041Z,34.00
2019-01-15T15:11:49.957Z,34.86
2019-01-15T15:14:23.688Z,35.45
2019-01-15T15:17:00.473Z,36.09
2019-01-15T15:19:34.468Z,36.50
2019-01-15T15:22:02.297Z,36.63
2019-01-15T15:24:46.728Z,37.48
2019-01-15T15:27:20.321Z,37.98
2019-01-15T15:29:56.956Z,38.37
2019-01-15T15:32:24.752Z,38.72
2019-01-15T15:34:58.812Z,38.64
2019-01-15T15:37:29.373Z,39.47
2019-01-15T15:39:57.145Z,39.57
2019-01-15T15:42:41.895Z,39.32
2019-01-15T15:45:09.975Z,39.60
2019-01-15T15:47:40.924Z,39.34
2019-01-15T15:50:10.601Z,39.80
2019-01-15T15:52:53.776Z,39.88
2019-01-15T15:55:24.993Z,39.99
2019-01-15T15:57:59.376Z,41.62
2019-01-15T16:00:43.929Z,41.13
2019-01-15T16:03:11.708Z,42.05
2019-01-15T16:05:39.503Z,42.48
2019-01-15T16:08:23.792Z,42.98
2019-01-15T16:10:54.390Z,42.02
2019-01-15T16:13:28.389Z,42.33
2019-01-15T16:16:18.786Z,42.95
2019-01-15T16:18:45.381Z,42.85
2019-01-15T16:21:22.143Z,43.25
2019-01-15T16:24:02.272Z,43.49
2019-01-15T16:26:32.659Z,43.96
2019-01-15T16:29:00.380Z,44.76
2019-01-15T16:31:28.167Z,45.12
2019-01-15T16:34:00.373Z,45.31
2019-01-15T16:36:37.330Z,45.73
2019-01-15T16:39:20.351Z,45.58
2019-01-15T16:41:54.347Z,45.40
2019-01-15T16:44:24.846Z,45.60
2019-01-15T16:46:52.660Z,45.99
2019-01-15T16:49:26.433Z,45.96
2019-01-15T16:52:48.536Z,46.35
2019-01-15T16:55:16.280Z,45.42
2019-01-15T16:57:56.263Z,44.81
2019-01-15T17:00:42.007Z,44.81
2019-01-15T17:03:09.769Z,45.34
2019-01-15T17:05:49.517Z,44.99
2019-01-15T17:08:17.276Z,44.50
2019-01-15T17:10:47.920Z,44.38
2019-01-15T17:13:21.587Z,44.86
2019-01-15T17:16:05.999Z,44.91
2019-01-15T17:18:39.834Z,45.65
2019-01-15T17:21:13.622Z,46.16
2019-01-15T17:23:44.460Z,46.29
2019-01-15T17:26:12.249Z,46.04
2019-01-15T17:28:40.032Z,45.93
2019-01-15T17:31:16.816Z,46.39
2019-01-15T17:33:53.777Z,46.40
2019-01-15T17:36:39.545Z,46.17
2019-01-15T17:39:14.570Z,45.97
2019-01-15T17:41:54.205Z,46.33
2019-01-15T17:44:33.848Z,46.29
2019-01-15T17:47:04.604Z,45.74
2019-01-15T17:49:32.405Z,46.31
2019-01-15T17:52:01.581Z,46.10
2019-01-15T17:54:44.396Z,46.35
2019-01-15T17:57:27.137Z,46.18
2019-01-15T18:00:07.743Z,46.03
2019-01-15T18:02:45.495Z,45.68
2019-01-15T18:05:30.054Z,46.09
2019-01-15T18:08:09.838Z,46.48
2019-01-15T18:10:40.759Z,47.12
2019-01-15T18:13:08.558Z,47.21
2019-01-15T18:15:53.116Z,47.02
2019-01-15T18:18:37.690Z,47.11
2019-01-15T18:21:14.402Z,46.76
2019-01-15T18:23:42.168Z,47.02
2019-01-15T18:26:12.957Z,47.23
2019-01-15T18:28:40.757Z,46.64
2019-01-15T18:31:23.757Z,47.32
2019-01-15T18:33:51.560Z,47.32
2019-01-15T18:36:35.769Z,46.85
2019-01-15T18:39:03.716Z,46.34
2019-01-15T18:41:48.277Z,46.34
2019-01-15T18:44:31.145Z,45.86
2019-01-15T18:47:15.727Z,45.86
2019-01-15T18:49:43.513Z,45.59
2019-01-15T18:52:27.854Z,45.79
2019-01-15T18:55:01.431Z,45.70
2019-01-15T18:57:46.029Z,45.70
2019-01-15T19:00:31.073Z,45.73
2019-01-15T19:03:17.731Z,45.73
2019-01-15T19:05:45.536Z,45.98
2019-01-15T19:08:16.088Z,45.99
2019-01-15T19:10:49.962Z,45.99
2019-01-15T19:13:17.758Z,45.65
2019-01-15T19:15:57.627Z,45.65
2019-01-15T19:18:40.633Z,44.74
2019-01-15T19:21:11.318Z,45.09
2019-01-15T19:23:51.475Z,44.93
2019-01-15T19:26:34.669Z,44.93
2019-01-15T19:29:02.461Z,45.31
2019-01-15T19:31:33.254Z,45.31
2019-01-15T19:34:06.830Z,44.87
2019-01-15T19:36:51.424Z,44.90
2019-01-15T19:39:19.209Z,44.90
2019-01-15T19:41:52.568Z,44.49
2019-01-15T19:44:37.330Z,44.68
2019-01-15T19:47:17.236Z,44.70
2019-01-15T19:50:01.772Z,44.65
2019-01-15T19:52:38.565Z,44.45
2019-01-15T19:55:07.386Z,44.45
2019-01-15T19:57:38.274Z,44.16
2019-01-15T20:00:18.088Z,44.36
2019-01-15T20:02:49.443Z,44.36
2019-01-15T20:05:29.522Z,44.64
2019-01-15T20:07:57.387Z,44.96
2019-01-15T20:10:25.170Z,44.96
2019-01-15T20:13:01.918Z,45.13
2019-01-15T20:15:35.562Z,45.13
2019-01-15T20:18:18.408Z,45.37
2019-01-15T20:20:46.182Z,45.50
2019-01-15T20:23:23.001Z,44.68
2019-01-15T20:25:55.274Z,44.64
2019-01-15T20:28:26.093Z,45.11
2019-01-15T20:30:59.849Z,45.19
2019-01-15T20:33:27.628Z,44.78
2019-01-15T20:35:55.424Z,44.64
2019-01-15T20:38:38.346Z,44.64
2019-01-15T20:41:09.101Z,44.28
2019-01-15T20:43:42.652Z,44.52
2019-01-15T20:46:15.965Z,45.02
2019-01-15T20:48:58.787Z,44.87
2019-01-15T20:51:26.559Z,44.76
2019-01-15T20:54:00.470Z,45.10
2019-01-15T20:56:38.610Z,45.10
2019-01-15T20:59:06.405Z,45.11
2019-01-15T21:01:36.949Z,45.09
2019-01-15T21:04:07.599Z,45.62
2019-01-15T21:06:36.152Z,46.33
2019-01-15T21:09:11.751Z,46.33
2019-01-15T21:11:39.567Z,46.49
2019-01-15T21:14:23.994Z,46.16
2019-01-15T21:17:08.320Z,46.16
2019-01-15T21:19:48.489Z,46.42
2019-01-15T21:22:19.226Z,46.10
2019-01-15T21:24:59.125Z,45.29
2019-01-15T21:27:30.210Z,45.39
2019-01-15T21:30:00.708Z,45.39
2019-01-15T21:32:45.022Z,44.34
2019-01-15T21:35:29.314Z,44.34
2019-01-15T21:38:13.624Z,44.76
2019-01-15T21:40:59.706Z,44.60
2019-01-15T21:43:36.258Z,44.03
2019-01-15T21:46:20.858Z,44.15
2019-01-15T21:49:03.693Z,44.13
2019-01-15T21:51:37.290Z,44.13
2019-01-15T21:54:13.896Z,44.34
2019-01-15T21:56:41.800Z,45.02
2019-01-15T21:59:21.994Z,45.67
2019-01-15T22:02:05.158Z,44.28
2019-01-15T22:04:51.194Z,44.28
2019-01-15T22:07:36.662Z,44.40
2019-01-15T22:10:19.980Z,44.40
2019-01-15T22:12:47.812Z,44.67
2019-01-15T22:15:18.376Z,45.00
2019-01-15T22:17:54.939Z,45.25
2019-01-15T22:20:37.685Z,45.19
2019-01-15T22:23:22.062Z,45.62
2019-01-15T22:25:49.964Z,45.62
2019-01-15T22:28:17.783Z,45.89
2019-01-15T22:31:02.434Z,45.75
2019-01-15T22:33:30.217Z,45.99
2019-01-15T22:36:03.842Z,45.91
2019-01-15T22:38:50.113Z,46.13
2019-01-15T22:41:17.923Z,46.21
2019-01-15T22:44:04.001Z,46.29
2019-01-15T22:46:31.894Z,46.17
2019-01-15T22:49:05.537Z,45.64
2019-01-15T22:51:51.575Z,46.18
2019-01-15T22:54:22.067Z,45.57
2019-01-15T22:56:58.660Z,45.71
2019-01-15T22:59:38.266Z,45.03
2019-01-15T23:02:06.065Z,44.98
2019-01-15T23:04:50.799Z,45.27
2019-01-15T23:07:19.149Z,45.54
2019-01-15T23:09:50.627Z,45.61
2019-01-15T23:12:18.449Z,45.52
2019-01-15T23:14:49.035Z,45.68
2019-01-15T23:17:33.377Z,45.86
2019-01-15T23:20:09.996Z,45.84
2019-01-15T23:22:40.814Z,45.74
2019-01-15T23:25:26.961Z,45.96
2019-01-15T23:28:11.362Z,45.96
2019-01-15T23:30:39.190Z,46.11
2019-01-15T23:33:06.946Z,46.23
2019-01-15T23:35:40.715Z,46.46
2019-01-15T23:38:08.541Z,46.61
2019-01-15T23:40:52.946Z,46.51
2019-01-15T23:43:23.716Z,46.44
2019-01-15T23:46:08.311Z,46.40
2019-01-15T23:48:51.521Z,46.22
2019-01-15T23:51:35.919Z,46.09
2019-01-15T23:54:07.748Z,46.08
2019-01-15T23:56:44.505Z,46.28
2019-01-15T23:59:12.372Z,46.44
